createdAt,value
2022-08-02T00:02:39.498Z,7.60
2022-08-02T00:05:24.403Z,6.93
2022-08-02T00:08:09.779Z,6.18
2022-08-02T00:10:56.259Z,5.70
2022-08-02T00:13:41.736Z,7.03
2022-08-02T00:16:37.897Z,6.43
2022-08-02T00:19:23.740Z,9.43
2022-08-02T00:22:09.310Z,7.68
2022-08-02T00:24:54.680Z,7.22
2022-08-02T00:27:39.938Z,7.13
2022-08-02T00:30:25.331Z,7.63
2022-08-02T00:33:10.535Z,5.13
2022-08-02T00:35:55.671Z,5.80
2022-08-02T00:38:40.997Z,7.60
2022-08-02T00:41:26.294Z,5.68
2022-08-02T00:44:11.440Z,10.23
2022-08-02T00:46:58.084Z,5.40
2022-08-02T00:49:43.281Z,9.15
2022-08-02T00:52:28.512Z,7.80
2022-08-02T00:55:13.689Z,7.63
2022-08-02T00:58:02.855Z,7.40
2022-08-02T01:00:48.306Z,10.02
2022-08-02T01:03:33.519Z,7.50
2022-08-02T01:06:18.817Z,5.00
2022-08-02T01:09:05.421Z,4.95
2022-08-02T01:11:50.825Z,6.85
2022-08-02T01:14:36.225Z,7.05
2022-08-02T01:17:58.377Z,11.00
2022-08-02T01:21:11.484Z,9.60
2022-08-02T01:24:29.732Z,4.63
2022-08-02T01:27:37.120Z,5.97
2022-08-02T01:30:22.259Z,6.38
2022-08-02T01:33:12.071Z,8.90
2022-08-02T01:35:58.623Z,5.28
2022-08-02T01:38:48.945Z,7.97
2022-08-02T01:41:35.522Z,9.27
2022-08-02T01:44:27.131Z,6.68
2022-08-02T01:47:19.485Z,7.47
2022-08-02T01:50:07.217Z,6.65
2022-08-02T01:52:56.938Z,6.25
2022-08-02T01:55:58.228Z,6.07
2022-08-02T01:58:46.713Z,9.18
2022-08-02T02:01:34.402Z,7.25
2022-08-02T02:04:22.099Z,5.13
2022-08-02T02:07:08.493Z,7.00
2022-08-02T02:09:56.642Z,5.28
2022-08-02T02:12:46.629Z,7.45
2022-08-02T02:15:32.723Z,4.28
2022-08-02T02:18:24.407Z,8.85
2022-08-02T02:21:10.394Z,10.10
2022-08-02T02:23:55.577Z,5.55
2022-08-02T02:26:52.460Z,8.18
2022-08-02T02:29:44.396Z,6.68
2022-08-02T02:32:30.686Z,7.43
2022-08-02T02:35:18.038Z,7.45
2022-08-02T02:38:09.746Z,8.10
2022-08-02T02:40:58.522Z,10.70
2022-08-02T02:43:43.902Z,13.23
2022-08-02T02:46:31.260Z,6.45
2022-08-02T02:49:18.830Z,5.40
2022-08-02T02:52:05.855Z,7.22
2022-08-02T02:54:52.213Z,8.93
2022-08-02T02:57:39.873Z,6.45
2022-08-02T03:00:43.351Z,9.90
2022-08-02T03:03:30.189Z,4.20
2022-08-02T03:06:16.219Z,7.43
2022-08-02T03:09:01.563Z,6.38
2022-08-02T03:11:48.364Z,6.28
2022-08-02T03:14:34.716Z,6.50
2022-08-02T03:17:20.222Z,6.28
2022-08-02T03:20:11.831Z,7.10
2022-08-02T03:22:56.873Z,6.82
2022-08-02T03:25:42.035Z,8.02
2022-08-02T03:28:27.678Z,6.75
2022-08-02T03:31:12.738Z,5.95
2022-08-02T03:34:01.314Z,9.55
2022-08-02T03:36:48.931Z,8.07
2022-08-02T03:39:34.318Z,12.93
2022-08-02T03:42:20.853Z,10.45
2022-08-02T03:45:09.206Z,5.25
2022-08-02T03:47:54.818Z,4.30
2022-08-02T03:50:47.698Z,8.75
2022-08-02T03:53:33.006Z,9.80
2022-08-02T03:56:18.790Z,8.98
2022-08-02T03:59:11.582Z,8.68
2022-08-02T04:01:56.681Z,5.47
2022-08-02T04:04:41.859Z,8.82
2022-08-02T04:08:02.703Z,6.75
2022-08-02T04:10:32.234Z,8.88
2022-08-02T04:13:17.512Z,11.90
2022-08-02T04:16:29.093Z,9.65
2022-08-02T04:19:24.918Z,17.17
2022-08-02T04:22:16.625Z,10.82
2022-08-02T04:25:05.054Z,9.05
2022-08-02T04:28:17.379Z,8.15
2022-08-02T04:30:57.813Z,10.40
2022-08-02T04:33:43.082Z,8.25
2022-08-02T04:36:31.245Z,10.73
2022-08-02T04:39:17.141Z,14.02
2022-08-02T04:42:03.402Z,10.85
2022-08-02T04:44:49.286Z,5.00
2022-08-02T04:48:02.426Z,7.40
2022-08-02T04:50:40.057Z,5.88
2022-08-02T04:53:25.581Z,5.45
2022-08-02T04:56:11.259Z,7.88
2022-08-02T04:58:56.445Z,9.50
2022-08-02T05:01:42.535Z,8.02
2022-08-02T05:04:27.606Z,8.82
2022-08-02T05:07:12.837Z,6.43
2022-08-02T05:09:58.034Z,9.43
2022-08-02T05:12:43.523Z,11.50
2022-08-02T05:15:32.972Z,6.90
2022-08-02T05:18:18.766Z,6.00
2022-08-02T05:21:04.228Z,7.78
2022-08-02T05:23:49.292Z,5.50
2022-08-02T05:26:34.440Z,5.85
2022-08-02T05:29:20.026Z,8.80
2022-08-02T05:32:05.708Z,5.93
2022-08-02T05:34:51.003Z,5.32
2022-08-02T05:37:36.222Z,5.68
2022-08-02T05:40:21.682Z,7.10
2022-08-02T05:45:57.328Z,5.30
2022-08-02T05:48:44.139Z,4.45
2022-08-02T05:51:36.301Z,9.05
2022-08-02T05:54:51.232Z,9.32
2022-08-02T05:58:20.895Z,4.20
2022-08-02T06:01:06.462Z,6.80
2022-08-02T06:03:53.362Z,5.90
2022-08-02T06:06:43.978Z,6.13
2022-08-02T06:09:29.654Z,4.43
2022-08-02T06:12:17.324Z,6.70
2022-08-02T06:15:05.095Z,8.30
2022-08-02T06:17:52.353Z,6.30
2022-08-02T06:20:37.844Z,8.88
2022-08-02T06:23:23.740Z,6.50
2022-08-02T06:26:11.851Z,7.00
2022-08-02T06:28:58.430Z,6.40
2022-08-02T06:31:45.205Z,9.32
2022-08-02T06:34:30.310Z,8.82
2022-08-02T06:37:27.285Z,5.57
2022-08-02T06:40:39.164Z,6.90
2022-08-02T06:43:49.765Z,8.85
2022-08-02T06:47:09.818Z,7.35
2022-08-02T06:49:52.570Z,10.68
2022-08-02T06:52:39.528Z,12.32
2022-08-02T06:55:24.873Z,8.23
2022-08-02T06:58:10.264Z,6.68
2022-08-02T07:00:55.660Z,10.85
2022-08-02T07:03:41.754Z,9.00
2022-08-02T07:06:26.842Z,5.57
2022-08-02T07:09:20.449Z,5.15
2022-08-02T07:12:06.647Z,7.05
2022-08-02T07:14:51.861Z,6.97
2022-08-02T07:17:37.167Z,7.10
2022-08-02T07:20:22.448Z,8.60
2022-08-02T07:23:07.911Z,4.72
2022-08-02T07:26:02.290Z,6.60
2022-08-02T07:28:48.919Z,8.98
2022-08-02T07:31:34.045Z,4.25
2022-08-02T07:34:19.423Z,5.85
2022-08-02T07:37:04.754Z,9.32
2022-08-02T07:39:53.433Z,2.97
2022-08-02T07:42:38.812Z,9.10
2022-08-02T07:45:25.117Z,14.32
2022-08-02T07:48:10.543Z,11.02
2022-08-02T07:50:55.972Z,7.88
2022-08-02T07:53:49.854Z,5.53
2022-08-02T07:56:37.381Z,8.63
2022-08-02T07:59:22.756Z,6.70
2022-08-02T08:02:08.301Z,8.05
2022-08-02T08:04:53.613Z,14.20
2022-08-02T08:07:39.229Z,7.55
2022-08-02T08:10:24.142Z,9.70
2022-08-02T08:13:09.345Z,5.90
2022-08-02T08:15:54.719Z,6.15
2022-08-02T08:18:40.004Z,5.68
2022-08-02T08:21:25.305Z,10.88
2022-08-02T08:24:10.602Z,12.18
2022-08-02T08:26:56.738Z,7.72
2022-08-02T08:29:42.794Z,8.02
2022-08-02T08:32:27.593Z,7.42
2022-08-02T08:35:13.761Z,11.70
2022-08-02T08:37:59.838Z,8.40
2022-08-02T08:40:49.560Z,14.10
2022-08-02T08:43:34.729Z,9.43
2022-08-02T08:46:28.678Z,9.75
2022-08-02T08:49:25.589Z,10.27
2022-08-02T08:52:12.950Z,8.02
2022-08-02T08:54:59.421Z,10.20
2022-08-02T08:57:45.193Z,11.13
2022-08-02T09:00:32.563Z,10.60
2022-08-02T09:03:18.124Z,8.32
2022-08-02T09:06:03.305Z,6.80
2022-08-02T09:08:50.184Z,6.47
2022-08-02T09:11:35.522Z,8.60
2022-08-02T09:14:29.268Z,6.50
2022-08-02T09:17:14.403Z,5.47
2022-08-02T09:20:09.265Z,5.63
2022-08-02T09:23:12.540Z,7.20
2022-08-02T09:26:01.666Z,7.25
2022-08-02T09:28:52.258Z,5.97
2022-08-02T09:31:37.178Z,5.10
2022-08-02T09:34:23.412Z,8.20
2022-08-02T09:37:24.210Z,9.68
2022-08-02T09:40:12.021Z,9.98
2022-08-02T09:43:00.111Z,10.80
2022-08-02T09:45:45.313Z,8.70
2022-08-02T09:48:30.543Z,7.82
2022-08-02T09:51:34.689Z,8.00
2022-08-02T09:54:29.373Z,3.65
2022-08-02T09:57:27.062Z,7.38
2022-08-02T10:00:17.967Z,5.57
2022-08-02T10:03:11.088Z,3.97
2022-08-02T10:06:07.072Z,6.07
2022-08-02T10:08:53.490Z,8.43
2022-08-02T10:11:39.688Z,8.60
2022-08-02T10:14:26.441Z,6.78
2022-08-02T10:17:12.211Z,7.00
2022-08-02T10:20:01.833Z,8.23
2022-08-02T10:22:50.146Z,4.80
2022-08-02T10:25:38.032Z,6.18
2022-08-02T10:28:30.178Z,5.75
2022-08-02T10:31:22.327Z,8.30
2022-08-02T10:34:12.550Z,5.47
2022-08-02T10:37:01.369Z,7.60
2022-08-02T10:39:50.714Z,5.95
2022-08-02T10:42:42.361Z,4.93
2022-08-02T10:45:27.478Z,4.38
2022-08-02T10:48:14.689Z,6.43
2022-08-02T10:51:03.437Z,5.63
2022-08-02T10:54:08.867Z,2.10
2022-08-02T10:56:56.704Z,6.47
2022-08-02T10:59:42.236Z,4.55
2022-08-02T11:02:39.696Z,4.50
2022-08-02T11:05:42.236Z,3.65
2022-08-02T11:08:29.011Z,4.40
2022-08-02T11:11:13.964Z,5.82
2022-08-02T11:14:07.072Z,3.50
2022-08-02T11:16:55.311Z,5.22
2022-08-02T11:20:25.272Z,4.63
2022-08-02T11:23:49.022Z,5.53
2022-08-02T11:26:34.365Z,7.75
2022-08-02T11:29:20.271Z,3.00
2022-08-02T11:32:16.304Z,9.35
2022-08-02T11:35:03.382Z,4.45
2022-08-02T11:37:48.914Z,4.18
2022-08-02T11:40:38.513Z,5.35
2022-08-02T11:46:14.717Z,5.13
2022-08-02T11:49:20.142Z,3.03
2022-08-02T11:52:07.387Z,2.67
2022-08-02T11:54:52.579Z,3.67
2022-08-02T11:58:03.532Z,7.90
2022-08-02T12:00:46.980Z,5.88
2022-08-02T12:03:39.686Z,4.97
2022-08-02T12:06:25.823Z,3.88
2022-08-02T12:09:18.210Z,6.80
2022-08-02T12:12:05.116Z,8.18
2022-08-02T12:14:50.030Z,4.32
2022-08-02T12:17:54.001Z,2.47
2022-08-02T12:20:39.339Z,3.83
2022-08-02T12:23:24.807Z,5.90
2022-08-02T12:26:15.947Z,6.07
2022-08-02T12:29:01.761Z,3.95
2022-08-02T12:31:56.502Z,3.50
2022-08-02T12:34:43.469Z,8.63
2022-08-02T12:37:28.718Z,2.38
2022-08-02T12:40:20.868Z,2.55
2022-08-02T12:43:19.954Z,6.13
2022-08-02T12:46:04.968Z,4.70
2022-08-02T12:49:16.177Z,3.72
2022-08-02T12:52:00.082Z,4.85
2022-08-02T12:54:51.663Z,1.40
2022-08-02T12:58:01.103Z,3.25
2022-08-02T13:01:01.231Z,3.65
2022-08-02T13:04:09.753Z,2.97
2022-08-02T13:06:51.482Z,3.15
2022-08-02T13:09:38.393Z,3.75
2022-08-02T13:12:24.017Z,5.20
2022-08-02T13:15:12.390Z,4.90
2022-08-02T13:18:15.378Z,2.30
2022-08-02T13:21:00.579Z,3.92
2022-08-02T13:23:54.100Z,3.42
2022-08-02T13:26:40.501Z,3.67
2022-08-02T13:29:25.703Z,2.97
2022-08-02T13:32:10.977Z,5.13
2022-08-02T13:34:58.120Z,4.28
2022-08-02T13:37:44.579Z,2.72
2022-08-02T13:40:49.017Z,1.95
2022-08-02T13:43:53.442Z,1.48
2022-08-02T13:46:45.493Z,3.28
2022-08-02T13:52:36.453Z,9.40
2022-08-02T13:55:21.422Z,6.32
2022-08-02T13:58:06.784Z,2.97
2022-08-02T14:00:51.873Z,1.83
2022-08-02T14:04:05.933Z,4.78
2022-08-02T14:06:42.064Z,3.75
2022-08-02T14:09:27.415Z,5.40
2022-08-02T14:12:13.380Z,4.43
2022-08-02T14:14:58.850Z,6.80
2022-08-02T14:17:44.094Z,4.47
2022-08-02T14:20:30.097Z,5.30
2022-08-02T14:23:15.832Z,4.78
2022-08-02T14:26:01.127Z,2.60
2022-08-02T14:28:46.770Z,5.03
2022-08-02T14:31:40.184Z,6.00
2022-08-02T14:34:28.882Z,3.50
2022-08-02T14:37:14.074Z,8.00
2022-08-02T14:40:01.253Z,4.93
2022-08-02T14:42:47.583Z,7.38
2022-08-02T14:45:40.163Z,6.40
2022-08-02T14:48:26.323Z,6.72
2022-08-02T14:51:13.905Z,6.13
2022-08-02T14:54:02.675Z,6.28
2022-08-02T14:56:48.889Z,7.07
2022-08-02T14:59:33.946Z,5.80
2022-08-02T15:02:19.243Z,5.93
2022-08-02T15:05:04.752Z,7.55
2022-08-02T15:07:49.914Z,4.85
2022-08-02T15:10:34.946Z,5.68
2022-08-02T15:13:20.199Z,9.60
2022-08-02T15:16:06.834Z,10.90
2022-08-02T15:18:52.062Z,10.02
2022-08-02T15:21:42.241Z,7.10
2022-08-02T15:24:39.680Z,7.00
2022-08-02T15:27:25.105Z,5.05
2022-08-02T15:30:10.651Z,8.85
2022-08-02T15:32:56.361Z,9.32
2022-08-02T15:35:41.389Z,6.30
2022-08-02T15:38:26.532Z,4.47
2022-08-02T15:41:11.945Z,7.97
2022-08-02T15:44:01.144Z,9.13
2022-08-02T15:49:31.481Z,5.80
2022-08-02T15:52:16.866Z,7.15
2022-08-02T15:55:06.910Z,4.70
2022-08-02T15:57:52.737Z,5.72
2022-08-02T16:00:38.039Z,3.58
2022-08-02T16:03:23.368Z,7.20
2022-08-02T16:06:08.564Z,5.15
2022-08-02T16:08:54.861Z,6.32
2022-08-02T16:11:40.204Z,9.18
2022-08-02T16:14:25.722Z,7.43
2022-08-02T16:17:10.863Z,6.65
2022-08-02T16:19:57.939Z,6.72
2022-08-02T16:22:43.261Z,5.47
2022-08-02T16:25:28.539Z,6.53
2022-08-02T16:28:13.769Z,5.63
2022-08-02T16:31:10.350Z,6.57
2022-08-02T16:33:57.076Z,10.50
2022-08-02T16:36:42.609Z,9.00
2022-08-02T16:39:27.906Z,7.32
2022-08-02T16:42:13.245Z,7.25
2022-08-02T16:45:02.095Z,10.75
2022-08-02T16:47:56.081Z,9.32
2022-08-02T16:50:46.383Z,10.90
2022-08-02T16:53:37.119Z,7.78
2022-08-02T16:56:23.597Z,6.63
2022-08-02T16:59:12.972Z,10.80
2022-08-02T17:05:00.657Z,8.57
2022-08-02T17:10:50.898Z,9.25
2022-08-02T17:13:37.955Z,11.88
2022-08-02T17:16:26.074Z,13.68
2022-08-02T17:19:11.543Z,7.65
2022-08-02T17:21:57.007Z,9.38
2022-08-02T17:24:42.390Z,11.32
2022-08-02T17:27:27.746Z,10.70
2022-08-02T17:30:13.982Z,9.77
2022-08-02T17:32:59.591Z,7.15
2022-08-02T17:35:52.886Z,8.68
2022-08-02T17:38:50.287Z,10.82
2022-08-02T17:41:39.779Z,14.43
2022-08-02T17:44:36.977Z,8.73
2022-08-02T17:47:30.812Z,10.80
2022-08-02T17:50:16.375Z,5.00
2022-08-02T17:53:02.102Z,7.45
2022-08-02T17:55:50.961Z,13.02
2022-08-02T17:58:36.054Z,10.90
2022-08-02T18:01:42.048Z,7.85
2022-08-02T18:04:38.799Z,9.25
2022-08-02T18:07:25.098Z,6.78
2022-08-02T18:10:10.681Z,10.20
2022-08-02T18:12:57.543Z,6.70
2022-08-02T18:15:45.773Z,16.23
2022-08-02T18:18:31.212Z,6.85
2022-08-02T18:21:22.124Z,7.25
2022-08-02T18:24:09.108Z,10.85
2022-08-02T18:26:56.703Z,12.32
2022-08-02T18:29:42.036Z,10.02
2022-08-02T18:33:55.282Z,8.95
2022-08-02T18:35:32.081Z,10.65
2022-08-02T18:38:20.843Z,9.90
2022-08-02T18:41:12.541Z,7.60
2022-08-02T18:43:58.278Z,7.70
2022-08-02T18:46:45.645Z,10.30
2022-08-02T18:49:46.108Z,8.10
2022-08-02T18:52:33.194Z,16.67
2022-08-02T18:56:00.130Z,9.80
2022-08-02T18:58:24.550Z,10.52
2022-08-02T19:01:14.645Z,12.13
2022-08-02T19:04:08.695Z,11.73
2022-08-02T19:06:54.533Z,15.75
2022-08-02T19:09:40.605Z,12.57
2022-08-02T19:12:28.143Z,13.63
2022-08-02T19:15:14.991Z,14.65
2022-08-02T19:18:01.877Z,14.38
2022-08-02T19:20:48.065Z,13.63
2022-08-02T19:23:33.906Z,10.57
2022-08-02T19:26:19.140Z,13.75
2022-08-02T19:29:08.829Z,12.60
2022-08-02T19:31:59.990Z,11.38
2022-08-02T19:34:47.446Z,18.90
2022-08-02T19:40:39.956Z,18.33
2022-08-02T19:44:26.681Z,14.02
2022-08-02T19:46:31.211Z,18.27
2022-08-02T19:49:39.139Z,14.52
2022-08-02T19:52:25.038Z,14.75
2022-08-02T19:55:58.591Z,17.40
2022-08-02T19:58:15.775Z,17.65
2022-08-02T20:01:01.225Z,16.52
2022-08-02T20:03:52.331Z,10.35
2022-08-02T20:06:39.070Z,14.77
2022-08-02T20:09:33.447Z,11.75
2022-08-02T20:12:37.109Z,20.05
2022-08-02T20:15:22.666Z,13.07
2022-08-02T20:18:29.634Z,16.80
2022-08-02T20:21:34.147Z,15.63
2022-08-02T20:24:19.636Z,14.23
2022-08-02T20:27:16.598Z,22.85
2022-08-02T20:30:03.016Z,16.63
2022-08-02T20:32:52.604Z,13.82
2022-08-02T20:35:39.465Z,14.65
2022-08-02T20:38:30.829Z,17.02
2022-08-02T20:41:21.910Z,12.48
2022-08-02T20:44:15.504Z,13.88
2022-08-02T20:47:01.635Z,14.43
2022-08-02T20:50:05.687Z,18.00
2022-08-02T20:52:53.465Z,12.73
2022-08-02T20:55:49.857Z,13.63
2022-08-02T20:58:52.234Z,10.90
2022-08-02T21:01:56.943Z,15.32
2022-08-02T21:04:42.673Z,16.85
2022-08-02T21:07:28.841Z,13.43
2022-08-02T21:10:17.768Z,15.93
2022-08-02T21:13:19.041Z,11.25
2022-08-02T21:16:08.996Z,15.10
2022-08-02T21:19:00.062Z,11.35
2022-08-02T21:21:45.708Z,13.27
2022-08-02T21:24:31.394Z,17.33
2022-08-02T21:27:53.290Z,14.45
2022-08-02T21:30:24.347Z,14.48
2022-08-02T21:33:18.922Z,14.52
2022-08-02T21:36:08.877Z,20.45
2022-08-02T21:38:57.351Z,17.75
2022-08-02T21:41:46.149Z,17.48
2022-08-02T21:44:32.553Z,19.52
2022-08-02T21:47:25.183Z,18.42
2022-08-02T21:50:15.964Z,13.65
2022-08-02T21:53:01.757Z,23.65
2022-08-02T21:56:00.604Z,14.27
2022-08-02T21:58:47.826Z,21.23
2022-08-02T22:01:35.024Z,10.85
2022-08-02T22:04:21.243Z,14.27
2022-08-02T22:07:06.584Z,13.43
2022-08-02T22:09:53.102Z,18.67
2022-08-02T22:12:38.242Z,17.60
2022-08-02T22:15:35.892Z,13.23
2022-08-02T22:18:29.388Z,16.40
2022-08-02T22:21:16.837Z,16.20
2022-08-02T22:24:12.929Z,20.63
2022-08-02T22:27:04.744Z,21.52
2022-08-02T22:29:50.101Z,17.05
2022-08-02T22:32:54.353Z,16.30
2022-08-02T22:35:39.829Z,17.75
2022-08-02T22:38:25.061Z,17.88
2022-08-02T22:41:10.609Z,21.05
2022-08-02T22:43:57.221Z,18.40
2022-08-02T22:46:42.626Z,19.17
2022-08-02T22:49:38.620Z,17.15
2022-08-02T22:52:29.241Z,13.85
2022-08-02T22:55:14.527Z,17.63
2022-08-02T22:58:00.016Z,18.92
2022-08-02T22:58:36.987Z,10.73
2022-08-02T22:58:52.549Z,13.95
2022-08-02T23:00:45.054Z,22.13
2022-08-02T23:03:30.524Z,19.58
2022-08-02T23:06:17.490Z,14.50
2022-08-02T23:09:02.836Z,15.38
2022-08-02T23:11:47.894Z,22.63
2022-08-02T23:14:33.021Z,18.15
2022-08-02T23:17:37.750Z,15.27
2022-08-02T23:20:23.242Z,22.08
2022-08-02T23:23:11.902Z,15.30
2022-08-02T23:25:57.278Z,17.42
2022-08-02T23:28:42.283Z,17.13
2022-08-02T23:31:38.087Z,20.40
2022-08-02T23:34:23.788Z,9.85
2022-08-02T23:37:09.454Z,14.77
2022-08-02T23:39:54.446Z,13.40
2022-08-02T23:42:39.809Z,17.80
2022-08-02T23:45:25.185Z,13.95
2022-08-02T23:48:22.901Z,16.17
2022-08-02T23:51:07.858Z,12.45
2022-08-02T23:53:53.209Z,18.75
2022-08-02T23:56:39.154Z,16.83
2022-08-02T23:59:24.661Z,15.35
